createdAt,value
2018-12-09T00:00:19.440Z,23.94
2018-12-09T00:00:51.029Z,23.94
2018-12-09T00:01:22.622Z,23.91
2018-12-09T00:01:54.237Z,23.91
2018-12-09T00:02:25.821Z,23.89
2018-12-09T00:02:57.404Z,23.89
2018-12-09T00:03:28.994Z,23.89
2018-12-09T00:04:00.585Z,23.89
2018-12-09T00:04:32.167Z,23.88
2018-12-09T00:05:03.761Z,23.87
2018-12-09T00:05:35.372Z,23.86
2018-12-09T00:06:06.959Z,23.84
2018-12-09T00:06:38.572Z,23.59
2018-12-09T00:07:10.183Z,23.83
2018-12-09T00:07:41.782Z,23.81
2018-12-09T00:08:13.392Z,23.80
2018-12-09T00:08:44.989Z,23.78
2018-12-09T00:09:16.585Z,23.78
2018-12-09T00:09:48.188Z,23.77
2018-12-09T00:10:19.795Z,23.75
2018-12-09T00:10:51.403Z,23.75
2018-12-09T00:11:22.997Z,23.74
2018-12-09T00:11:54.617Z,23.73
2018-12-09T00:12:26.216Z,23.73
2018-12-09T00:12:57.814Z,23.72
2018-12-09T00:13:29.415Z,23.73
2018-12-09T00:14:01.009Z,23.73
2018-12-09T00:14:32.604Z,23.74
2018-12-09T00:15:04.212Z,23.74
2018-12-09T00:15:35.819Z,23.72
2018-12-09T00:16:07.432Z,23.72
2018-12-09T00:16:39.068Z,23.72
2018-12-09T00:17:10.665Z,23.71
2018-12-09T00:17:42.332Z,23.71
2018-12-09T00:18:13.941Z,23.71
2018-12-09T00:18:45.524Z,23.71
2018-12-09T00:19:17.123Z,23.70
2018-12-09T00:19:48.709Z,23.68
2018-12-09T00:20:20.333Z,23.67
2018-12-09T00:20:51.941Z,23.67
2018-12-09T00:21:23.553Z,23.67
2018-12-09T00:21:55.174Z,23.64
2018-12-09T00:22:26.784Z,23.66
2018-12-09T00:22:58.382Z,23.64
2018-12-09T00:23:29.995Z,23.64
2018-12-09T00:24:01.590Z,23.64
2018-12-09T00:24:33.181Z,23.63
2018-12-09T00:25:04.786Z,23.62
2018-12-09T00:25:36.386Z,23.62
2018-12-09T00:26:07.981Z,23.60
2018-12-09T00:26:39.597Z,23.63
2018-12-09T00:27:11.190Z,23.62
2018-12-09T00:27:42.773Z,23.63
2018-12-09T00:28:14.356Z,23.64
2018-12-09T00:28:45.940Z,23.65
2018-12-09T00:29:17.524Z,23.64
2018-12-09T00:29:49.126Z,23.63
2018-12-09T00:30:20.737Z,23.63
2018-12-09T00:30:52.320Z,23.61
2018-12-09T00:31:23.932Z,23.62
2018-12-09T00:31:55.554Z,23.62
2018-12-09T00:32:27.153Z,23.63
2018-12-09T00:32:58.745Z,23.62
2018-12-09T00:33:30.332Z,23.63
2018-12-09T00:34:01.944Z,23.63
2018-12-09T00:34:33.556Z,23.63
2018-12-09T00:35:05.146Z,23.61
2018-12-09T00:35:36.728Z,23.61
2018-12-09T00:36:08.317Z,23.52
2018-12-09T00:36:40.107Z,23.60
2018-12-09T00:37:11.703Z,23.60
2018-12-09T00:37:43.298Z,23.60
2018-12-09T00:38:14.908Z,23.62
2018-12-09T00:38:46.525Z,23.61
2018-12-09T00:39:18.137Z,23.55
2018-12-09T00:39:49.733Z,23.42
2018-12-09T00:40:21.323Z,23.28
2018-12-09T00:40:52.932Z,23.15
2018-12-09T00:41:24.533Z,23.05
2018-12-09T00:41:56.118Z,23.06
2018-12-09T00:42:27.714Z,23.11
2018-12-09T00:42:59.309Z,23.19
2018-12-09T00:43:30.919Z,23.25
2018-12-09T00:44:02.524Z,23.31
2018-12-09T00:44:34.117Z,23.35
2018-12-09T00:45:05.710Z,23.38
2018-12-09T00:45:37.302Z,23.41
2018-12-09T00:46:08.934Z,23.45
2018-12-09T00:46:40.520Z,23.47
2018-12-09T00:47:12.114Z,23.50
2018-12-09T00:47:43.710Z,23.51
2018-12-09T00:48:15.298Z,23.52
2018-12-09T00:48:46.896Z,23.53
2018-12-09T00:49:18.489Z,23.54
2018-12-09T00:49:50.099Z,23.57
2018-12-09T00:50:21.701Z,23.58
2018-12-09T00:50:53.293Z,23.60
2018-12-09T00:51:24.878Z,23.60
2018-12-09T00:51:56.512Z,23.61
2018-12-09T00:52:28.115Z,23.61
2018-12-09T00:52:59.728Z,23.59
2018-12-09T00:53:31.326Z,23.59
2018-12-09T00:54:02.917Z,23.58
2018-12-09T00:54:34.568Z,23.59
2018-12-09T00:55:06.168Z,23.13
2018-12-09T00:55:37.765Z,23.61
2018-12-09T00:56:09.376Z,23.60
2018-12-09T00:56:40.970Z,23.60
2018-12-09T00:57:12.593Z,23.61
2018-12-09T00:57:44.195Z,23.63
2018-12-09T00:58:15.804Z,23.63
2018-12-09T00:58:47.388Z,23.65
2018-12-09T00:59:18.967Z,23.67
2018-12-09T00:59:50.559Z,23.68
2018-12-09T01:00:22.154Z,23.68
2018-12-09T01:00:53.745Z,23.68
2018-12-09T01:01:25.353Z,23.67
2018-12-09T01:01:56.983Z,23.68
2018-12-09T01:02:28.586Z,23.67
2018-12-09T01:03:00.177Z,23.67
2018-12-09T01:03:31.759Z,23.68
2018-12-09T01:04:03.356Z,23.67
2018-12-09T01:04:34.968Z,23.68
2018-12-09T01:05:06.577Z,23.69
2018-12-09T01:05:38.183Z,23.69
2018-12-09T01:06:09.792Z,23.71
2018-12-09T01:06:41.399Z,23.72
2018-12-09T01:07:13.120Z,23.73
2018-12-09T01:07:44.654Z,23.74
2018-12-09T01:08:16.370Z,23.73
2018-12-09T01:08:47.931Z,23.74
2018-12-09T01:09:23.630Z,23.75
2018-12-09T01:09:55.470Z,23.75
2018-12-09T01:10:27.068Z,23.76
2018-12-09T01:10:58.669Z,23.77
2018-12-09T01:11:30.282Z,23.80
2018-12-09T01:12:01.919Z,23.81
2018-12-09T01:12:33.515Z,23.79
2018-12-09T01:13:05.124Z,23.82
2018-12-09T01:13:36.731Z,23.83
2018-12-09T01:14:08.339Z,23.85
2018-12-09T01:14:39.950Z,23.86
2018-12-09T01:15:11.545Z,23.87
2018-12-09T01:15:43.160Z,23.86
2018-12-09T01:16:14.770Z,23.87
2018-12-09T01:16:46.377Z,23.88
2018-12-09T01:17:18.007Z,23.89
2018-12-09T01:17:49.602Z,23.88
2018-12-09T01:18:21.217Z,23.89
2018-12-09T01:18:52.814Z,23.89
2018-12-09T01:19:24.409Z,23.89
2018-12-09T01:19:56.018Z,23.90
2018-12-09T01:20:27.622Z,23.91
2018-12-09T01:20:59.204Z,23.92
2018-12-09T01:21:30.797Z,23.91
2018-12-09T01:22:02.413Z,23.92
2018-12-09T01:22:34.050Z,23.92
2018-12-09T01:23:05.660Z,23.91
2018-12-09T01:23:37.261Z,23.89
2018-12-09T01:24:08.863Z,23.90
2018-12-09T01:24:40.475Z,23.91
2018-12-09T01:25:12.074Z,23.91
2018-12-09T01:25:43.674Z,23.92
2018-12-09T01:26:15.281Z,23.93
2018-12-09T01:26:46.929Z,23.93
2018-12-09T01:27:18.553Z,23.92
2018-12-09T01:27:50.197Z,23.91
2018-12-09T01:28:21.814Z,23.91
2018-12-09T01:28:53.423Z,23.91
2018-12-09T01:29:25.034Z,23.91
2018-12-09T01:29:56.642Z,23.91
2018-12-09T01:30:28.238Z,23.91
2018-12-09T01:30:59.842Z,23.90
2018-12-09T01:31:31.454Z,23.89
2018-12-09T01:32:03.091Z,23.88
2018-12-09T01:32:34.718Z,23.86
2018-12-09T01:33:06.320Z,23.85
2018-12-09T01:33:37.911Z,23.84
2018-12-09T01:34:09.520Z,23.84
2018-12-09T01:34:41.122Z,23.84
2018-12-09T01:35:12.731Z,23.84
2018-12-09T01:35:44.330Z,23.83
2018-12-09T01:36:15.929Z,23.81
2018-12-09T01:36:47.592Z,23.81
2018-12-09T01:37:19.216Z,23.82
2018-12-09T01:37:50.865Z,23.84
2018-12-09T01:38:22.462Z,23.84
2018-12-09T01:38:54.083Z,23.83
2018-12-09T01:39:25.681Z,23.83
2018-12-09T01:39:57.295Z,23.82
2018-12-09T01:40:28.897Z,23.82
2018-12-09T01:41:00.559Z,23.80
2018-12-09T01:41:32.150Z,23.79
2018-12-09T01:42:03.745Z,23.79
2018-12-09T01:42:35.365Z,23.77
2018-12-09T01:43:06.971Z,23.77
2018-12-09T01:43:38.569Z,23.77
2018-12-09T01:44:10.159Z,23.75
2018-12-09T01:44:41.775Z,23.76
2018-12-09T01:45:13.380Z,23.75
2018-12-09T01:45:45.000Z,23.74
2018-12-09T01:46:16.598Z,23.72
2018-12-09T01:46:48.250Z,23.71
2018-12-09T01:47:19.883Z,23.71
2018-12-09T01:47:51.499Z,23.69
2018-12-09T01:48:23.119Z,23.70
2018-12-09T01:48:54.722Z,23.72
2018-12-09T01:49:26.338Z,23.74
2018-12-09T01:49:57.955Z,23.63
2018-12-09T01:50:29.550Z,23.74
2018-12-09T01:51:01.165Z,23.74
2018-12-09T01:51:32.791Z,23.73
2018-12-09T01:52:04.405Z,23.70
2018-12-09T01:52:36.051Z,23.69
2018-12-09T01:53:07.650Z,23.67
2018-12-09T01:53:39.250Z,23.66
2018-12-09T01:54:10.859Z,23.65
2018-12-09T01:54:42.504Z,23.63
2018-12-09T01:55:14.110Z,23.65
2018-12-09T01:55:45.699Z,23.65
2018-12-09T01:56:17.297Z,23.66
2018-12-09T01:56:48.996Z,23.66
2018-12-09T01:57:20.633Z,23.65
2018-12-09T01:57:52.273Z,23.65
2018-12-09T01:58:23.899Z,23.65
2018-12-09T01:58:55.516Z,23.65
2018-12-09T01:59:27.124Z,23.63
2018-12-09T01:59:58.746Z,23.63
2018-12-09T02:00:30.368Z,23.62
2018-12-09T02:01:01.976Z,23.62
2018-12-09T02:01:33.592Z,23.63
2018-12-09T02:02:05.201Z,23.63
2018-12-09T02:02:36.835Z,23.65
2018-12-09T02:03:08.448Z,23.67
2018-12-09T02:03:40.064Z,23.66
2018-12-09T02:04:11.661Z,23.67
2018-12-09T02:04:43.271Z,23.66
2018-12-09T02:05:14.874Z,23.68
2018-12-09T02:05:46.491Z,23.67
2018-12-09T02:06:18.093Z,23.67
2018-12-09T02:06:49.742Z,23.67
2018-12-09T02:07:21.355Z,23.67
2018-12-09T02:07:52.974Z,23.67
2018-12-09T02:08:24.560Z,23.68
2018-12-09T02:08:56.143Z,23.68
2018-12-09T02:09:27.765Z,23.66
2018-12-09T02:09:59.344Z,23.67
2018-12-09T02:10:30.946Z,23.66
2018-12-09T02:11:02.551Z,23.65
2018-12-09T02:11:34.159Z,23.64
2018-12-09T02:12:05.745Z,23.64
2018-12-09T02:12:37.366Z,23.64
2018-12-09T02:13:08.961Z,23.65
2018-12-09T02:13:40.558Z,23.66
2018-12-09T02:14:12.153Z,23.66
2018-12-09T02:14:43.754Z,23.65
2018-12-09T02:15:15.357Z,23.66
2018-12-09T02:15:46.972Z,23.66
2018-12-09T02:16:18.600Z,23.67
2018-12-09T02:16:50.267Z,23.67
2018-12-09T02:17:21.856Z,23.67
2018-12-09T02:17:53.486Z,23.66
2018-12-09T02:18:25.100Z,23.60
2018-12-09T02:18:56.716Z,23.31
2018-12-09T02:19:28.332Z,23.21
2018-12-09T02:19:59.940Z,23.09
2018-12-09T02:20:31.546Z,22.99
2018-12-09T02:21:03.153Z,22.92
2018-12-09T02:21:34.748Z,22.88
2018-12-09T02:22:06.345Z,22.86
2018-12-09T02:22:37.988Z,22.85
2018-12-09T02:23:09.576Z,22.83
2018-12-09T02:23:41.183Z,22.86
2018-12-09T02:24:12.782Z,22.86
2018-12-09T02:24:44.381Z,22.86
2018-12-09T02:25:15.985Z,22.86
2018-12-09T02:25:47.591Z,22.88
2018-12-09T02:26:19.569Z,22.87
2018-12-09T02:26:51.235Z,22.87
2018-12-09T02:27:22.825Z,22.86
2018-12-09T02:27:54.456Z,22.85
2018-12-09T02:28:26.062Z,22.86
2018-12-09T02:28:57.665Z,22.85
2018-12-09T02:29:29.261Z,22.85
2018-12-09T02:30:00.856Z,22.84
2018-12-09T02:30:32.449Z,22.83
2018-12-09T02:31:04.052Z,22.81
2018-12-09T02:31:35.663Z,22.81
2018-12-09T02:32:07.280Z,22.81
2018-12-09T02:32:38.897Z,22.77
2018-12-09T02:33:10.544Z,22.78
2018-12-09T02:33:42.146Z,22.77
2018-12-09T02:34:13.741Z,22.77
2018-12-09T02:34:45.342Z,22.77
2018-12-09T02:35:16.938Z,22.76
2018-12-09T02:35:48.553Z,22.75
2018-12-09T02:36:20.176Z,22.74
2018-12-09T02:36:51.837Z,22.74
2018-12-09T02:37:23.456Z,22.74
2018-12-09T02:37:55.085Z,22.74
2018-12-09T02:38:26.685Z,22.72
2018-12-09T02:38:58.282Z,22.72
2018-12-09T02:39:29.873Z,22.72
2018-12-09T02:40:01.496Z,22.72
2018-12-09T02:40:33.097Z,22.72
2018-12-09T02:41:04.698Z,22.71
2018-12-09T02:41:36.316Z,22.71
2018-12-09T02:42:07.914Z,22.71
2018-12-09T02:42:39.515Z,22.70
2018-12-09T02:43:11.155Z,22.70
2018-12-09T02:43:42.767Z,22.70
2018-12-09T02:44:14.383Z,22.70
2018-12-09T02:44:45.982Z,22.70
2018-12-09T02:45:17.605Z,22.70
2018-12-09T02:45:49.225Z,22.69
2018-12-09T02:46:20.824Z,22.69
2018-12-09T02:46:52.470Z,22.67
2018-12-09T02:47:24.083Z,22.68
2018-12-09T02:47:55.725Z,22.67
2018-12-09T02:48:27.339Z,22.67
2018-12-09T02:48:58.950Z,22.67
2018-12-09T02:49:30.621Z,22.66
2018-12-09T02:50:02.222Z,22.66
2018-12-09T02:50:33.824Z,22.65
2018-12-09T02:51:05.427Z,22.65
2018-12-09T02:51:37.032Z,22.65
2018-12-09T02:52:08.648Z,22.65
2018-12-09T02:52:40.254Z,22.64
2018-12-09T02:53:11.881Z,22.64
2018-12-09T02:53:43.510Z,22.63
2018-12-09T02:54:15.095Z,22.63
2018-12-09T02:54:46.703Z,22.62
2018-12-09T02:55:18.324Z,22.60
2018-12-09T02:55:49.990Z,22.60
2018-12-09T02:56:21.619Z,22.62
2018-12-09T02:56:53.263Z,22.62
2018-12-09T02:57:24.858Z,22.61
2018-12-09T02:57:56.487Z,22.61
2018-12-09T02:58:28.121Z,22.61
2018-12-09T02:58:59.770Z,22.61
2018-12-09T02:59:31.365Z,22.61
2018-12-09T03:00:02.952Z,22.61
2018-12-09T03:00:34.567Z,22.61
2018-12-09T03:01:06.193Z,22.58
2018-12-09T03:01:37.811Z,22.60
2018-12-09T03:02:09.402Z,22.59
2018-12-09T03:02:41.003Z,22.60
2018-12-09T03:03:12.648Z,22.59
2018-12-09T03:03:44.259Z,22.56
2018-12-09T03:04:15.858Z,22.59
2018-12-09T03:04:47.476Z,22.58
2018-12-09T03:05:19.075Z,22.57
2018-12-09T03:05:50.723Z,22.57
2018-12-09T03:06:22.373Z,22.54
2018-12-09T03:06:54.033Z,22.57
2018-12-09T03:07:25.652Z,22.55
2018-12-09T03:07:57.276Z,22.55
2018-12-09T03:08:28.901Z,22.57
2018-12-09T03:09:00.498Z,22.55
2018-12-09T03:09:32.108Z,22.55
2018-12-09T03:10:03.723Z,22.55
2018-12-09T03:10:35.325Z,22.55
2018-12-09T03:11:06.932Z,22.55
2018-12-09T03:11:38.532Z,22.55
2018-12-09T03:12:10.145Z,22.53
2018-12-09T03:12:41.749Z,22.53
2018-12-09T03:13:13.392Z,22.53
2018-12-09T03:13:45.008Z,22.52
2018-12-09T03:14:16.610Z,22.52
2018-12-09T03:14:48.222Z,22.51
2018-12-09T03:15:19.821Z,22.51
2018-12-09T03:15:51.469Z,22.50
2018-12-09T03:16:23.074Z,22.48
2018-12-09T03:16:54.674Z,22.49
2018-12-09T03:17:26.264Z,22.47
2018-12-09T03:17:57.865Z,22.46
2018-12-09T03:18:29.491Z,22.45
2018-12-09T03:19:01.090Z,22.45
2018-12-09T03:19:32.706Z,22.44
2018-12-09T03:20:04.323Z,22.45
2018-12-09T03:20:35.951Z,22.43
2018-12-09T03:21:07.553Z,22.43
2018-12-09T03:21:39.160Z,22.42
2018-12-09T03:22:10.748Z,22.41
2018-12-09T03:22:42.346Z,22.41
2018-12-09T03:23:13.975Z,22.40
2018-12-09T03:23:45.600Z,22.40
2018-12-09T03:24:17.216Z,22.39
2018-12-09T03:24:48.880Z,22.39
2018-12-09T03:25:20.479Z,22.39
2018-12-09T03:25:52.125Z,22.37
2018-12-09T03:26:23.988Z,22.37
2018-12-09T03:26:55.573Z,22.37
2018-12-09T03:27:27.181Z,22.36
2018-12-09T03:27:58.774Z,22.35
2018-12-09T03:28:30.407Z,22.32
2018-12-09T03:29:02.018Z,22.34
2018-12-09T03:29:33.634Z,22.34
2018-12-09T03:30:05.260Z,22.33
2018-12-09T03:30:36.893Z,22.32
2018-12-09T03:31:08.493Z,22.33
2018-12-09T03:31:40.096Z,22.31
2018-12-09T03:32:11.717Z,22.31
2018-12-09T03:32:43.331Z,22.30
2018-12-09T03:33:14.933Z,22.29
2018-12-09T03:33:46.525Z,22.29
2018-12-09T03:34:18.137Z,22.30
2018-12-09T03:34:49.767Z,22.29
2018-12-09T03:35:21.366Z,22.28
2018-12-09T03:35:52.961Z,22.29
2018-12-09T03:36:24.558Z,22.28
2018-12-09T03:36:56.144Z,22.28
2018-12-09T03:37:27.727Z,22.27
2018-12-09T03:37:59.327Z,22.27
2018-12-09T03:38:30.950Z,22.25
2018-12-09T03:39:02.568Z,22.26
2018-12-09T03:39:34.184Z,22.25
2018-12-09T03:40:05.781Z,22.25
2018-12-09T03:40:37.391Z,22.24
2018-12-09T03:41:08.999Z,22.23
2018-12-09T03:41:40.612Z,22.21
2018-12-09T03:42:12.210Z,22.22
2018-12-09T03:42:43.836Z,22.22
2018-12-09T03:43:15.443Z,22.21
2018-12-09T03:43:47.095Z,22.20
2018-12-09T03:44:18.791Z,22.20
2018-12-09T03:44:50.409Z,22.20
2018-12-09T03:45:22.014Z,22.20
2018-12-09T03:45:53.613Z,22.18
2018-12-09T03:46:25.209Z,22.18
2018-12-09T03:46:56.800Z,22.18
2018-12-09T03:47:28.402Z,22.17
2018-12-09T03:47:59.997Z,22.16
2018-12-09T03:48:31.629Z,22.17
2018-12-09T03:49:03.234Z,22.16
2018-12-09T03:49:34.844Z,22.15
2018-12-09T03:50:06.451Z,22.15
2018-12-09T03:50:38.063Z,22.14
2018-12-09T03:51:09.649Z,22.13
2018-12-09T03:51:41.255Z,22.11
2018-12-09T03:52:12.854Z,22.11
2018-12-09T03:52:44.488Z,22.11
2018-12-09T03:53:16.090Z,22.08
2018-12-09T03:53:47.752Z,22.09
2018-12-09T03:54:19.349Z,22.09
2018-12-09T03:54:50.946Z,22.09
2018-12-09T03:55:22.550Z,22.08
2018-12-09T03:55:54.149Z,21.87
2018-12-09T03:56:25.736Z,22.08
2018-12-09T03:56:57.353Z,22.08
2018-12-09T03:57:28.955Z,22.08
2018-12-09T03:58:00.594Z,22.07
2018-12-09T03:58:32.219Z,22.07
2018-12-09T03:59:03.864Z,22.06
2018-12-09T03:59:35.457Z,22.07
2018-12-09T04:00:07.072Z,22.07
2018-12-09T04:00:38.693Z,22.07
2018-12-09T04:01:10.297Z,22.07
2018-12-09T04:01:41.945Z,22.08
2018-12-09T04:02:13.545Z,22.08
2018-12-09T04:02:45.203Z,22.07
2018-12-09T04:03:16.823Z,22.07
2018-12-09T04:03:48.473Z,22.08
2018-12-09T04:04:20.091Z,22.09
2018-12-09T04:04:51.732Z,22.09
2018-12-09T04:05:23.359Z,22.09
2018-12-09T04:05:54.969Z,22.09
2018-12-09T04:06:26.592Z,22.10
2018-12-09T04:06:58.183Z,22.09
2018-12-09T04:07:29.786Z,22.10
2018-12-09T04:08:01.385Z,22.10
2018-12-09T04:08:32.991Z,22.11
2018-12-09T04:09:04.628Z,22.11
2018-12-09T04:09:36.226Z,22.10
2018-12-09T04:10:07.821Z,22.11
2018-12-09T04:10:39.459Z,22.11
2018-12-09T04:11:11.053Z,22.09
2018-12-09T04:11:42.724Z,22.11
2018-12-09T04:12:14.326Z,22.11
2018-12-09T04:12:45.934Z,22.10
2018-12-09T04:13:17.534Z,22.11
2018-12-09T04:13:50.974Z,22.11
2018-12-09T04:14:20.851Z,22.10
2018-12-09T04:14:52.469Z,22.11
2018-12-09T04:15:24.080Z,22.11
2018-12-09T04:15:55.681Z,22.11
2018-12-09T04:16:27.297Z,22.11
2018-12-09T04:16:58.899Z,22.10
2018-12-09T04:17:30.517Z,22.08
2018-12-09T04:18:02.114Z,22.09
2018-12-09T04:18:33.724Z,22.10
2018-12-09T04:19:05.362Z,22.09
2018-12-09T04:19:36.961Z,22.11
2018-12-09T04:20:08.555Z,22.13
2018-12-09T04:20:40.216Z,22.15
2018-12-09T04:21:11.832Z,22.17
2018-12-09T04:21:43.424Z,22.18
2018-12-09T04:22:15.012Z,22.19
2018-12-09T04:22:46.605Z,22.20
2018-12-09T04:23:20.050Z,22.06
2018-12-09T04:23:49.847Z,22.23
2018-12-09T04:24:21.479Z,22.24
2018-12-09T04:24:53.093Z,22.25
2018-12-09T04:25:24.709Z,22.26
2018-12-09T04:25:56.323Z,22.25
2018-12-09T04:26:28.291Z,22.25
2018-12-09T04:26:59.890Z,22.26
2018-12-09T04:27:31.504Z,22.25
2018-12-09T04:28:03.102Z,22.25
2018-12-09T04:28:34.707Z,22.25
2018-12-09T04:29:06.335Z,22.24
2018-12-09T04:29:37.972Z,22.24
2018-12-09T04:30:09.589Z,22.24
2018-12-09T04:30:41.201Z,22.23
2018-12-09T04:31:12.802Z,22.23
2018-12-09T04:31:44.387Z,22.23
2018-12-09T04:32:15.995Z,22.23
2018-12-09T04:32:47.588Z,22.22
2018-12-09T04:33:19.186Z,22.22
2018-12-09T04:33:50.777Z,22.20
2018-12-09T04:34:22.412Z,22.21
2018-12-09T04:34:54.029Z,22.21
2018-12-09T04:35:25.630Z,22.20
2018-12-09T04:35:57.230Z,22.20
2018-12-09T04:36:28.831Z,22.18
2018-12-09T04:37:00.442Z,22.19
2018-12-09T04:37:32.136Z,22.19
2018-12-09T04:38:03.761Z,22.20
2018-12-09T04:38:35.423Z,22.21
2018-12-09T04:39:07.060Z,22.20
2018-12-09T04:39:38.708Z,22.20
2018-12-09T04:40:10.310Z,22.20
2018-12-09T04:40:41.969Z,22.20
2018-12-09T04:41:13.576Z,22.20
2018-12-09T04:41:45.172Z,22.19
2018-12-09T04:42:16.789Z,22.18
2018-12-09T04:42:48.415Z,22.18
2018-12-09T04:43:20.012Z,22.17
2018-12-09T04:43:51.601Z,22.17
2018-12-09T04:44:23.361Z,22.17
2018-12-09T04:44:54.970Z,22.15
2018-12-09T04:45:26.566Z,22.15
2018-12-09T04:45:58.234Z,22.15
2018-12-09T04:46:29.825Z,22.14
2018-12-09T04:47:01.408Z,22.14
2018-12-09T04:47:33.069Z,22.13
2018-12-09T04:48:04.683Z,22.14
2018-12-09T04:48:36.348Z,22.14
2018-12-09T04:49:07.969Z,22.13
2018-12-09T04:49:39.608Z,22.13
2018-12-09T04:50:11.210Z,22.12
2018-12-09T04:50:42.805Z,22.12
2018-12-09T04:51:14.405Z,22.13
2018-12-09T04:51:46.002Z,22.12
2018-12-09T04:52:17.601Z,22.12
2018-12-09T04:52:49.211Z,22.11
2018-12-09T04:53:20.815Z,22.12
2018-12-09T04:53:52.421Z,22.11
2018-12-09T04:54:24.072Z,22.11
2018-12-09T04:54:55.672Z,22.10
2018-12-09T04:55:27.296Z,22.09
2018-12-09T04:55:58.907Z,22.10
2018-12-09T04:56:30.510Z,22.09
2018-12-09T04:57:02.122Z,22.10
2018-12-09T04:57:33.783Z,22.10
2018-12-09T04:58:05.378Z,22.09
2018-12-09T04:58:36.962Z,22.09
2018-12-09T04:59:08.548Z,22.10
2018-12-09T04:59:40.187Z,22.09
2018-12-09T05:00:11.803Z,22.09
2018-12-09T05:00:43.405Z,22.10
2018-12-09T05:01:15.001Z,22.10
2018-12-09T05:01:46.619Z,22.10
2018-12-09T05:02:18.205Z,22.09
2018-12-09T05:02:49.815Z,22.09
2018-12-09T05:03:21.435Z,22.07
2018-12-09T05:03:53.039Z,22.10
2018-12-09T05:04:24.678Z,22.09
2018-12-09T05:04:56.321Z,22.08
2018-12-09T05:05:27.937Z,22.07
2018-12-09T05:05:59.534Z,22.08
2018-12-09T05:06:31.203Z,22.08
2018-12-09T05:07:02.811Z,22.09
2018-12-09T05:07:34.418Z,22.08
2018-12-09T05:08:06.029Z,22.09
2018-12-09T05:08:37.621Z,22.08
2018-12-09T05:09:09.204Z,22.09
2018-12-09T05:09:40.834Z,22.12
2018-12-09T05:10:12.623Z,22.13
2018-12-09T05:10:44.440Z,22.14
2018-12-09T05:11:16.521Z,22.17
2018-12-09T05:11:48.282Z,22.17
2018-12-09T05:12:20.167Z,22.17
2018-12-09T05:12:52.047Z,22.16
2018-12-09T05:13:24.018Z,22.17
2018-12-09T05:13:55.940Z,22.15
2018-12-09T05:14:27.722Z,22.13
2018-12-09T05:14:59.701Z,22.13
2018-12-09T05:15:31.324Z,22.12
2018-12-09T05:16:02.934Z,22.12
2018-12-09T05:16:34.604Z,22.13
2018-12-09T05:17:06.199Z,22.12
2018-12-09T05:17:37.795Z,22.11
2018-12-09T05:18:09.412Z,22.11
2018-12-09T05:18:41.010Z,22.11
2018-12-09T05:19:12.609Z,22.10
2018-12-09T05:19:44.229Z,22.10
2018-12-09T05:20:15.835Z,22.11
2018-12-09T05:20:47.441Z,22.11
2018-12-09T05:21:19.099Z,22.11
2018-12-09T05:21:50.692Z,22.10
2018-12-09T05:22:22.312Z,22.10
2018-12-09T05:22:53.913Z,22.09
2018-12-09T05:23:25.538Z,22.10
2018-12-09T05:23:57.135Z,22.09
2018-12-09T05:24:28.852Z,22.08
2018-12-09T05:25:00.499Z,22.08
2018-12-09T05:25:32.168Z,22.08
2018-12-09T05:26:03.785Z,22.08
2018-12-09T05:26:35.433Z,22.08
2018-12-09T05:27:07.025Z,22.09
2018-12-09T05:27:38.612Z,22.09
2018-12-09T05:28:10.233Z,22.08
2018-12-09T05:28:41.847Z,22.08
2018-12-09T05:29:13.451Z,22.09
2018-12-09T05:29:45.106Z,22.08
2018-12-09T05:30:16.710Z,22.08
2018-12-09T05:30:48.313Z,22.09
2018-12-09T05:31:19.929Z,22.09
2018-12-09T05:31:51.544Z,22.09
2018-12-09T05:32:23.160Z,22.09
2018-12-09T05:32:54.752Z,22.09
2018-12-09T05:33:26.368Z,22.08
2018-12-09T05:33:57.969Z,22.08
2018-12-09T05:34:29.622Z,22.08
2018-12-09T05:35:01.257Z,22.08
2018-12-09T05:35:32.861Z,22.08
2018-12-09T05:36:04.472Z,22.08
2018-12-09T05:36:36.074Z,22.09
2018-12-09T05:37:07.669Z,22.10
2018-12-09T05:37:39.248Z,22.08
2018-12-09T05:38:10.856Z,22.08
2018-12-09T05:38:42.472Z,22.09
2018-12-09T05:39:14.083Z,22.09
2018-12-09T05:39:45.691Z,22.09
2018-12-09T05:40:17.316Z,22.09
2018-12-09T05:40:48.929Z,22.09
2018-12-09T05:41:20.545Z,22.10
2018-12-09T05:41:52.132Z,22.10
2018-12-09T05:42:23.783Z,22.10
2018-12-09T05:42:55.396Z,22.11
2018-12-09T05:43:27.035Z,22.11
2018-12-09T05:43:58.623Z,22.10
2018-12-09T05:44:30.230Z,22.11
2018-12-09T05:45:01.868Z,22.11
2018-12-09T05:45:33.478Z,22.10
2018-12-09T05:46:05.073Z,22.11
2018-12-09T05:46:36.683Z,22.11
2018-12-09T05:47:08.296Z,22.11
2018-12-09T05:47:39.911Z,22.10
2018-12-09T05:48:11.505Z,22.11
2018-12-09T05:48:43.102Z,22.10
2018-12-09T05:49:14.720Z,22.11
2018-12-09T05:49:46.326Z,22.10
2018-12-09T05:50:17.904Z,22.13
2018-12-09T05:50:49.502Z,22.12
2018-12-09T05:51:21.167Z,22.13
2018-12-09T05:51:52.779Z,22.13
2018-12-09T05:52:24.387Z,22.12
2018-12-09T05:52:55.989Z,22.12
2018-12-09T05:53:27.602Z,22.11
2018-12-09T05:53:59.222Z,22.11
2018-12-09T05:54:30.822Z,22.11
2018-12-09T05:55:02.469Z,22.11
2018-12-09T05:55:34.074Z,22.11
2018-12-09T05:56:05.676Z,22.11
2018-12-09T05:56:37.274Z,22.11
2018-12-09T05:57:08.878Z,22.10
2018-12-09T05:57:40.483Z,22.11
2018-12-09T05:58:12.089Z,22.11
2018-12-09T05:58:43.689Z,22.11
2018-12-09T05:59:15.292Z,22.10
2018-12-09T05:59:46.915Z,22.09
2018-12-09T06:00:18.579Z,21.89
2018-12-09T06:00:50.172Z,22.09
2018-12-09T06:01:21.760Z,22.10
2018-12-09T06:01:53.357Z,22.10
2018-12-09T06:02:24.976Z,22.10
2018-12-09T06:02:56.575Z,22.09
2018-12-09T06:03:28.182Z,22.09
2018-12-09T06:03:59.781Z,22.09
2018-12-09T06:04:31.378Z,22.09
2018-12-09T06:05:02.992Z,22.08
2018-12-09T06:05:34.619Z,22.08
2018-12-09T06:06:06.223Z,22.08
2018-12-09T06:06:37.828Z,22.08
2018-12-09T06:07:09.441Z,22.08
2018-12-09T06:07:41.052Z,22.08
2018-12-09T06:08:12.640Z,22.08
2018-12-09T06:08:44.244Z,22.07
2018-12-09T06:09:15.898Z,22.07
2018-12-09T06:09:47.501Z,22.06
2018-12-09T06:10:19.131Z,22.05
2018-12-09T06:10:50.733Z,22.06
2018-12-09T06:11:22.349Z,22.06
2018-12-09T06:11:53.969Z,22.06
2018-12-09T06:12:25.575Z,22.06
2018-12-09T06:12:57.195Z,22.07
2018-12-09T06:13:28.796Z,22.06
2018-12-09T06:14:00.415Z,22.06
2018-12-09T06:14:32.043Z,22.06
2018-12-09T06:15:13.557Z,22.06
2018-12-09T06:15:45.168Z,22.06
2018-12-09T06:16:16.783Z,22.06
2018-12-09T06:16:48.386Z,22.07
2018-12-09T06:17:19.985Z,22.07
2018-12-09T06:17:51.583Z,22.06
2018-12-09T06:18:23.192Z,22.06
2018-12-09T06:18:54.808Z,22.06
2018-12-09T06:19:26.410Z,22.06
2018-12-09T06:19:58.007Z,22.05
2018-12-09T06:20:29.658Z,22.04
2018-12-09T06:21:01.252Z,22.05
2018-12-09T06:21:32.849Z,22.05
2018-12-09T06:22:04.441Z,22.05
2018-12-09T06:22:36.056Z,22.05
2018-12-09T06:23:07.647Z,22.04
2018-12-09T06:23:39.249Z,22.04
2018-12-09T06:24:10.846Z,22.04
2018-12-09T06:24:42.428Z,22.04
2018-12-09T06:25:14.031Z,22.03
2018-12-09T06:25:45.645Z,22.05
2018-12-09T06:26:17.241Z,22.05
2018-12-09T06:26:48.864Z,22.05
2018-12-09T06:27:20.467Z,22.05
2018-12-09T06:27:52.066Z,22.05
2018-12-09T06:28:23.675Z,22.04
2018-12-09T06:28:55.274Z,22.05
2018-12-09T06:29:26.922Z,22.04
2018-12-09T06:29:58.517Z,22.05
2018-12-09T06:30:30.166Z,22.04
2018-12-09T06:31:01.771Z,22.04
2018-12-09T06:31:33.369Z,22.05
2018-12-09T06:32:04.975Z,22.04
2018-12-09T06:32:36.563Z,21.93
2018-12-09T06:33:08.161Z,22.01
2018-12-09T06:33:39.774Z,22.03
2018-12-09T06:34:11.379Z,22.03
2018-12-09T06:34:42.982Z,22.02
2018-12-09T06:35:14.587Z,22.01
2018-12-09T06:35:46.231Z,22.01
2018-12-09T06:36:17.843Z,21.99
2018-12-09T06:36:49.441Z,21.98
2018-12-09T06:37:21.050Z,21.94
2018-12-09T06:37:52.643Z,21.96
2018-12-09T06:38:24.300Z,21.96
2018-12-09T06:38:55.897Z,21.95
2018-12-09T06:39:27.497Z,21.95
2018-12-09T06:39:59.093Z,21.94
2018-12-09T06:40:30.777Z,21.94
2018-12-09T06:41:02.405Z,21.92
2018-12-09T06:41:34.012Z,21.91
2018-12-09T06:42:05.621Z,21.91
2018-12-09T06:42:37.222Z,21.90
2018-12-09T06:43:08.804Z,21.88
2018-12-09T06:43:40.402Z,21.89
2018-12-09T06:44:12.057Z,21.67
2018-12-09T06:44:43.659Z,21.88
2018-12-09T06:45:15.274Z,21.88
2018-12-09T06:45:46.898Z,21.87
2018-12-09T06:46:18.503Z,21.87
2018-12-09T06:46:50.099Z,21.86
2018-12-09T06:47:21.756Z,21.85